sensor_id;sensor_type;location;lat;lon;timestamp;temperature;humidity
12438;DHT22;6283;51.330;12.374;2023-04-25T00:00:35;8.50;1.00
12438;DHT22;6283;51.330;12.374;2023-04-25T00:03:01;8.70;1.00
12438;DHT22;6283;51.330;12.374;2023-04-25T00:05:26;8.80;1.00
12438;DHT22;6283;51.330;12.374;2023-04-25T00:07:52;8.60;1.00
12438;DHT22;6283;51.330;12.374;2023-04-25T00:10:19;8.80;1.00
12438;DHT22;6283;51.330;12.374;2023-04-25T00:12:45;8.60;1.00
12438;DHT22;6283;51.330;12.374;2023-04-25T00:15:12;8.70;1.00
12438;DHT22;6283;51.330;12.374;2023-04-25T00:17:37;8.70;1.00
12438;DHT22;6283;51.330;12.374;2023-04-25T00:20:04;8.70;1.00
12438;DHT22;6283;51.330;12.374;2023-04-25T00:22:39;8.80;1.00
12438;DHT22;6283;51.330;12.374;2023-04-25T00:25:05;8.50;1.00
12438;DHT22;6283;51.330;12.374;2023-04-25T00:27:31;8.60;1.00
12438;DHT22;6283;51.330;12.374;2023-04-25T00:29:57;8.40;1.00
12438;DHT22;6283;51.330;12.374;2023-04-25T00:32:23;8.40;1.00
12438;DHT22;6283;51.330;12.374;2023-04-25T00:34:48;8.30;1.00
12438;DHT22;6283;51.330;12.374;2023-04-25T00:37:14;8.10;1.00
12438;DHT22;6283;51.330;12.374;2023-04-25T00:39:40;8.30;1.00
12438;DHT22;6283;51.330;12.374;2023-04-25T00:42:05;8.20;1.00
12438;DHT22;6283;51.330;12.374;2023-04-25T00:44:32;7.90;1.00
12438;DHT22;6283;51.330;12.374;2023-04-25T00:47:00;8.10;1.00
12438;DHT22;6283;51.330;12.374;2023-04-25T00:49:26;8.10;1.00
12438;DHT22;6283;51.330;12.374;2023-04-25T00:51:52;7.80;1.00
12438;DHT22;6283;51.330;12.374;2023-04-25T00:54:18;7.90;1.00
12438;DHT22;6283;51.330;12.374;2023-04-25T00:56:44;7.90;1.00
12438;DHT22;6283;51.330;12.374;2023-04-25T00:59:10;7.80;1.00
12438;DHT22;6283;51.330;12.374;2023-04-25T01:01:36;7.90;1.00
12438;DHT22;6283;51.330;12.374;2023-04-25T01:04:04;8.00;1.00
12438;DHT22;6283;51.330;12.374;2023-04-25T01:06:30;7.80;1.00
12438;DHT22;6283;51.330;12.374;2023-04-25T01:08:57;7.70;2.40
12438;DHT22;6283;51.330;12.374;2023-04-25T01:11:24;7.70;18.00
12438;DHT22;6283;51.330;12.374;2023-04-25T01:13:50;7.60;10.10
12438;DHT22;6283;51.330;12.374;2023-04-25T01:16:16;7.60;10.90
12438;DHT22;6283;51.330;12.374;2023-04-25T01:18:45;7.50;13.90
12438;DHT22;6283;51.330;12.374;2023-04-25T01:21:12;7.20;15.60
12438;DHT22;6283;51.330;12.374;2023-04-25T01:23:39;7.30;18.50
12438;DHT22;6283;51.330;12.374;2023-04-25T01:26:06;7.30;21.30
12438;DHT22;6283;51.330;12.374;2023-04-25T01:28:34;7.50;19.60
12438;DHT22;6283;51.330;12.374;2023-04-25T01:31:01;7.10;19.90
12438;DHT22;6283;51.330;12.374;2023-04-25T01:33:26;7.30;19.60
12438;DHT22;6283;51.330;12.374;2023-04-25T01:35:52;7.30;21.40
12438;DHT22;6283;51.330;12.374;2023-04-25T01:38:18;7.30;21.90
12438;DHT22;6283;51.330;12.374;2023-04-25T01:40:45;7.20;22.00
12438;DHT22;6283;51.330;12.374;2023-04-25T01:43:12;7.20;21.30
12438;DHT22;6283;51.330;12.374;2023-04-25T01:45:40;7.20;22.50
12438;DHT22;6283;51.330;12.374;2023-04-25T01:48:07;7.20;23.20
12438;DHT22;6283;51.330;12.374;2023-04-25T01:50:33;7.10;26.00
12438;DHT22;6283;51.330;12.374;2023-04-25T01:52:59;7.10;26.50
12438;DHT22;6283;51.330;12.374;2023-04-25T01:55:26;7.10;25.90
12438;DHT22;6283;51.330;12.374;2023-04-25T01:57:51;7.20;29.40
12438;DHT22;6283;51.330;12.374;2023-04-25T02:00:17;7.00;27.90
12438;DHT22;6283;51.330;12.374;2023-04-25T02:02:43;7.00;30.10
12438;DHT22;6283;51.330;12.374;2023-04-25T02:05:09;6.90;33.10
12438;DHT22;6283;51.330;12.374;2023-04-25T02:07:34;6.90;34.70
12438;DHT22;6283;51.330;12.374;2023-04-25T02:10:00;7.10;42.60
12438;DHT22;6283;51.330;12.374;2023-04-25T02:12:27;6.90;34.30
12438;DHT22;6283;51.330;12.374;2023-04-25T02:14:53;6.80;33.50
12438;DHT22;6283;51.330;12.374;2023-04-25T02:17:18;7.10;32.30
12438;DHT22;6283;51.330;12.374;2023-04-25T02:19:44;6.90;31.90
12438;DHT22;6283;51.330;12.374;2023-04-25T02:22:10;7.10;33.70
12438;DHT22;6283;51.330;12.374;2023-04-25T02:24:36;6.90;33.50
12438;DHT22;6283;51.330;12.374;2023-04-25T02:27:01;7.00;35.50
12438;DHT22;6283;51.330;12.374;2023-04-25T02:29:28;7.20;36.80
12438;DHT22;6283;51.330;12.374;2023-04-25T02:31:54;6.90;35.60
12438;DHT22;6283;51.330;12.374;2023-04-25T02:34:20;6.80;37.70
12438;DHT22;6283;51.330;12.374;2023-04-25T02:36:45;6.70;38.90
12438;DHT22;6283;51.330;12.374;2023-04-25T02:39:11;6.70;42.30
12438;DHT22;6283;51.330;12.374;2023-04-25T02:41:37;6.70;41.00
12438;DHT22;6283;51.330;12.374;2023-04-25T02:44:02;7.00;40.00
12438;DHT22;6283;51.330;12.374;2023-04-25T02:46:28;6.80;40.70
12438;DHT22;6283;51.330;12.374;2023-04-25T02:48:53;6.80;43.40
12438;DHT22;6283;51.330;12.374;2023-04-25T02:51:19;6.60;44.40
12438;DHT22;6283;51.330;12.374;2023-04-25T02:53:45;6.60;44.90
12438;DHT22;6283;51.330;12.374;2023-04-25T02:56:10;6.60;48.10
12438;DHT22;6283;51.330;12.374;2023-04-25T02:58:36;6.60;50.30
12438;DHT22;6283;51.330;12.374;2023-04-25T03:01:01;6.80;52.10
12438;DHT22;6283;51.330;12.374;2023-04-25T03:03:27;6.60;56.00
12438;DHT22;6283;51.330;12.374;2023-04-25T03:05:53;6.60;63.70
12438;DHT22;6283;51.330;12.374;2023-04-25T03:08:18;6.60;68.80
12438;DHT22;6283;51.330;12.374;2023-04-25T03:10:44;6.40;70.90
12438;DHT22;6283;51.330;12.374;2023-04-25T03:13:10;6.70;74.60
12438;DHT22;6283;51.330;12.374;2023-04-25T03:15:37;6.80;71.20
12438;DHT22;6283;51.330;12.374;2023-04-25T03:18:03;6.60;71.70
12438;DHT22;6283;51.330;12.374;2023-04-25T03:20:29;6.70;70.00
12438;DHT22;6283;51.330;12.374;2023-04-25T03:22:55;6.50;73.40
12438;DHT22;6283;51.330;12.374;2023-04-25T03:25:20;6.50;73.20
12438;DHT22;6283;51.330;12.374;2023-04-25T03:27:49;6.30;76.70
12438;DHT22;6283;51.330;12.374;2023-04-25T03:30:15;6.40;79.80
12438;DHT22;6283;51.330;12.374;2023-04-25T03:32:40;6.20;79.80
12438;DHT22;6283;51.330;12.374;2023-04-25T03:35:06;6.40;80.30
12438;DHT22;6283;51.330;12.374;2023-04-25T03:37:32;6.40;78.80
12438;DHT22;6283;51.330;12.374;2023-04-25T03:39:57;6.40;82.90
12438;DHT22;6283;51.330;12.374;2023-04-25T03:42:23;6.50;81.90
12438;DHT22;6283;51.330;12.374;2023-04-25T03:44:49;6.30;83.40
12438;DHT22;6283;51.330;12.374;2023-04-25T03:47:15;6.50;80.30
12438;DHT22;6283;51.330;12.374;2023-04-25T03:49:41;6.60;79.40
12438;DHT22;6283;51.330;12.374;2023-04-25T03:52:06;6.40;78.10
12438;DHT22;6283;51.330;12.374;2023-04-25T03:54:32;6.50;75.40
12438;DHT22;6283;51.330;12.374;2023-04-25T03:56:58;6.60;75.20
12438;DHT22;6283;51.330;12.374;2023-04-25T03:59:24;6.50;76.20
12438;DHT22;6283;51.330;12.374;2023-04-25T04:01:50;6.40;71.40
12438;DHT22;6283;51.330;12.374;2023-04-25T04:04:16;6.50;70.40
12438;DHT22;6283;51.330;12.374;2023-04-25T04:06:41;6.60;67.50
12438;DHT22;6283;51.330;12.374;2023-04-25T04:09:07;6.50;67.60
12438;DHT22;6283;51.330;12.374;2023-04-25T04:11:37;6.60;58.20
12438;DHT22;6283;51.330;12.374;2023-04-25T04:14:07;6.70;55.20
12438;DHT22;6283;51.330;12.374;2023-04-25T04:16:33;6.50;51.70
12438;DHT22;6283;51.330;12.374;2023-04-25T04:18:58;6.70;51.50
12438;DHT22;6283;51.330;12.374;2023-04-25T04:21:24;6.40;50.50
12438;DHT22;6283;51.330;12.374;2023-04-25T04:23:50;6.70;48.20
12438;DHT22;6283;51.330;12.374;2023-04-25T04:26:15;6.80;48.40
12438;DHT22;6283;51.330;12.374;2023-04-25T04:28:44;6.70;46.40
12438;DHT22;6283;51.330;12.374;2023-04-25T04:31:12;6.70;45.10
12438;DHT22;6283;51.330;12.374;2023-04-25T04:33:38;6.70;43.00
12438;DHT22;6283;51.330;12.374;2023-04-25T04:36:04;6.60;37.10
12438;DHT22;6283;51.330;12.374;2023-04-25T04:38:30;6.80;35.70
12438;DHT22;6283;51.330;12.374;2023-04-25T04:40:56;6.80;32.50
12438;DHT22;6283;51.330;12.374;2023-04-25T04:43:22;6.50;31.20
12438;DHT22;6283;51.330;12.374;2023-04-25T04:45:48;6.80;30.70
12438;DHT22;6283;51.330;12.374;2023-04-25T04:48:15;6.80;28.60
12438;DHT22;6283;51.330;12.374;2023-04-25T04:50:43;6.70;26.60
12438;DHT22;6283;51.330;12.374;2023-04-25T04:53:10;6.90;40.30
12438;DHT22;6283;51.330;12.374;2023-04-25T04:55:36;6.90;24.70
12438;DHT22;6283;51.330;12.374;2023-04-25T04:58:01;6.80;39.20
12438;DHT22;6283;51.330;12.374;2023-04-25T05:00:27;6.70;23.90
12438;DHT22;6283;51.330;12.374;2023-04-25T05:02:55;7.00;24.20
12438;DHT22;6283;51.330;12.374;2023-04-25T05:05:20;6.70;25.10
12438;DHT22;6283;51.330;12.374;2023-04-25T05:07:46;6.90;26.10
12438;DHT22;6283;51.330;12.374;2023-04-25T05:10:12;7.00;24.10
12438;DHT22;6283;51.330;12.374;2023-04-25T05:12:37;6.80;24.80
12438;DHT22;6283;51.330;12.374;2023-04-25T05:15:03;6.80;25.60
12438;DHT22;6283;51.330;12.374;2023-04-25T05:17:29;6.90;26.70
12438;DHT22;6283;51.330;12.374;2023-04-25T05:19:55;6.90;26.50
12438;DHT22;6283;51.330;12.374;2023-04-25T05:22:20;6.70;27.10
12438;DHT22;6283;51.330;12.374;2023-04-25T05:24:46;7.30;26.90
12438;DHT22;6283;51.330;12.374;2023-04-25T05:27:13;7.10;24.20
12438;DHT22;6283;51.330;12.374;2023-04-25T05:29:39;7.20;24.90
12438;DHT22;6283;51.330;12.374;2023-04-25T05:32:05;6.90;25.40
12438;DHT22;6283;51.330;12.374;2023-04-25T05:34:31;7.10;22.70
12438;DHT22;6283;51.330;12.374;2023-04-25T05:36:56;7.50;23.50
12438;DHT22;6283;51.330;12.374;2023-04-25T05:39:22;7.30;20.80
12438;DHT22;6283;51.330;12.374;2023-04-25T05:41:48;7.40;19.20
12438;DHT22;6283;51.330;12.374;2023-04-25T05:44:13;7.20;19.10
12438;DHT22;6283;51.330;12.374;2023-04-25T05:46:41;7.50;18.00
12438;DHT22;6283;51.330;12.374;2023-04-25T05:49:06;7.40;10.10
12438;DHT22;6283;51.330;12.374;2023-04-25T05:51:32;7.40;5.50
12438;DHT22;6283;51.330;12.374;2023-04-25T05:54:00;7.70;3.10
12438;DHT22;6283;51.330;12.374;2023-04-25T05:56:26;7.50;1.00
12438;DHT22;6283;51.330;12.374;2023-04-25T05:58:51;7.80;1.00
12438;DHT22;6283;51.330;12.374;2023-04-25T06:01:17;7.90;1.00
12438;DHT22;6283;51.330;12.374;2023-04-25T06:03:42;7.90;1.00
12438;DHT22;6283;51.330;12.374;2023-04-25T06:06:09;8.00;1.00
12438;DHT22;6283;51.330;12.374;2023-04-25T06:08:35;7.70;1.00
12438;DHT22;6283;51.330;12.374;2023-04-25T06:11:00;7.90;1.00
12438;DHT22;6283;51.330;12.374;2023-04-25T06:13:26;8.10;1.00
12438;DHT22;6283;51.330;12.374;2023-04-25T06:15:52;7.90;1.00
12438;DHT22;6283;51.330;12.374;2023-04-25T06:18:17;8.10;1.00
12438;DHT22;6283;51.330;12.374;2023-04-25T06:20:43;8.30;1.00
12438;DHT22;6283;51.330;12.374;2023-04-25T06:23:09;8.00;1.00
12438;DHT22;6283;51.330;12.374;2023-04-25T06:25:34;8.10;1.00
12438;DHT22;6283;51.330;12.374;2023-04-25T06:28:00;8.10;1.00
12438;DHT22;6283;51.330;12.374;2023-04-25T06:30:25;8.30;1.00
12438;DHT22;6283;51.330;12.374;2023-04-25T06:32:52;8.40;1.00
12438;DHT22;6283;51.330;12.374;2023-04-25T06:35:18;8.40;1.00
12438;DHT22;6283;51.330;12.374;2023-04-25T06:37:44;8.60;1.00
12438;DHT22;6283;51.330;12.374;2023-04-25T06:40:10;8.80;1.00
12438;DHT22;6283;51.330;12.374;2023-04-25T06:42:36;8.80;1.00
12438;DHT22;6283;51.330;12.374;2023-04-25T06:45:02;8.80;1.00
12438;DHT22;6283;51.330;12.374;2023-04-25T06:47:28;8.80;1.00
12438;DHT22;6283;51.330;12.374;2023-04-25T06:49:55;8.50;1.00
12438;DHT22;6283;51.330;12.374;2023-04-25T06:52:21;8.70;1.00
12438;DHT22;6283;51.330;12.374;2023-04-25T06:54:46;8.60;1.00
12438;DHT22;6283;51.330;12.374;2023-04-25T06:57:12;9.00;1.00
12438;DHT22;6283;51.330;12.374;2023-04-25T06:59:38;8.80;1.00
12438;DHT22;6283;51.330;12.374;2023-04-25T07:02:04;9.00;1.00
12438;DHT22;6283;51.330;12.374;2023-04-25T07:04:29;9.00;1.00
12438;DHT22;6283;51.330;12.374;2023-04-25T07:06:56;9.00;1.00
12438;DHT22;6283;51.330;12.374;2023-04-25T07:09:22;9.10;1.00
12438;DHT22;6283;51.330;12.374;2023-04-25T07:11:47;9.10;1.00
12438;DHT22;6283;51.330;12.374;2023-04-25T07:14:13;8.80;1.00
12438;DHT22;6283;51.330;12.374;2023-04-25T07:16:39;9.00;1.00
12438;DHT22;6283;51.330;12.374;2023-04-25T07:19:05;8.70;1.00
12438;DHT22;6283;51.330;12.374;2023-04-25T07:21:31;9.00;1.00
12438;DHT22;6283;51.330;12.374;2023-04-25T07:23:57;9.00;1.00
12438;DHT22;6283;51.330;12.374;2023-04-25T07:26:23;8.70;1.00
12438;DHT22;6283;51.330;12.374;2023-04-25T07:28:48;8.90;1.00
12438;DHT22;6283;51.330;12.374;2023-04-25T07:31:17;8.90;1.00
12438;DHT22;6283;51.330;12.374;2023-04-25T07:33:44;9.00;1.00
12438;DHT22;6283;51.330;12.374;2023-04-25T07:36:10;8.70;1.00
12438;DHT22;6283;51.330;12.374;2023-04-25T07:38:36;8.80;1.00
12438;DHT22;6283;51.330;12.374;2023-04-25T07:41:01;8.90;1.00
12438;DHT22;6283;51.330;12.374;2023-04-25T07:43:27;8.70;1.00
12438;DHT22;6283;51.330;12.374;2023-04-25T07:45:53;8.90;1.00
12438;DHT22;6283;51.330;12.374;2023-04-25T07:48:18;8.70;1.00
12438;DHT22;6283;51.330;12.374;2023-04-25T07:50:44;8.70;1.00
12438;DHT22;6283;51.330;12.374;2023-04-25T07:53:10;8.70;1.00
12438;DHT22;6283;51.330;12.374;2023-04-25T07:55:36;8.70;1.00
12438;DHT22;6283;51.330;12.374;2023-04-25T07:58:08;8.90;1.00
12438;DHT22;6283;51.330;12.374;2023-04-25T08:00:34;8.70;1.00
12438;DHT22;6283;51.330;12.374;2023-04-25T08:03:00;8.80;1.00
12438;DHT22;6283;51.330;12.374;2023-04-25T08:05:25;9.00;1.00
12438;DHT22;6283;51.330;12.374;2023-04-25T08:07:51;9.00;1.00
12438;DHT22;6283;51.330;12.374;2023-04-25T08:10:16;9.00;1.00
12438;DHT22;6283;51.330;12.374;2023-04-25T08:12:42;9.00;1.00
12438;DHT22;6283;51.330;12.374;2023-04-25T08:15:08;8.90;1.00
12438;DHT22;6283;51.330;12.374;2023-04-25T08:17:34;8.90;1.00
12438;DHT22;6283;51.330;12.374;2023-04-25T08:20:00;8.70;1.00
12438;DHT22;6283;51.330;12.374;2023-04-25T08:22:26;8.90;1.00
12438;DHT22;6283;51.330;12.374;2023-04-25T08:24:55;8.80;1.00
12438;DHT22;6283;51.330;12.374;2023-04-25T08:27:20;8.80;1.00
12438;DHT22;6283;51.330;12.374;2023-04-25T08:29:46;8.90;1.00
12438;DHT22;6283;51.330;12.374;2023-04-25T08:32:12;9.00;1.00
12438;DHT22;6283;51.330;12.374;2023-04-25T08:34:37;9.30;1.00
12438;DHT22;6283;51.330;12.374;2023-04-25T08:37:07;9.30;1.00
12438;DHT22;6283;51.330;12.374;2023-04-25T08:39:33;9.40;1.00
12438;DHT22;6283;51.330;12.374;2023-04-25T08:42:00;9.40;1.00
12438;DHT22;6283;51.330;12.374;2023-04-25T08:44:26;9.30;1.00
12438;DHT22;6283;51.330;12.374;2023-04-25T08:46:52;9.70;1.00
12438;DHT22;6283;51.330;12.374;2023-04-25T08:49:18;9.50;1.00
12438;DHT22;6283;51.330;12.374;2023-04-25T08:51:45;9.70;1.00
12438;DHT22;6283;51.330;12.374;2023-04-25T08:54:16;9.70;1.00
12438;DHT22;6283;51.330;12.374;2023-04-25T08:56:45;9.70;1.00
12438;DHT22;6283;51.330;12.374;2023-04-25T08:59:14;9.80;1.00
12438;DHT22;6283;51.330;12.374;2023-04-25T09:01:40;9.50;1.00
12438;DHT22;6283;51.330;12.374;2023-04-25T09:04:06;9.70;1.00
12438;DHT22;6283;51.330;12.374;2023-04-25T09:06:32;9.90;1.00
12438;DHT22;6283;51.330;12.374;2023-04-25T09:09:06;9.80;1.00
12438;DHT22;6283;51.330;12.374;2023-04-25T09:11:33;10.00;1.00
12438;DHT22;6283;51.330;12.374;2023-04-25T09:17:00;10.10;1.00
12438;DHT22;6283;51.330;12.374;2023-04-25T09:19:34;10.20;1.00
12438;DHT22;6283;51.330;12.374;2023-04-25T09:22:05;10.50;1.00
12438;DHT22;6283;51.330;12.374;2023-04-25T09:24:36;10.60;1.00
12438;DHT22;6283;51.330;12.374;2023-04-25T09:27:08;10.40;1.00
12438;DHT22;6283;51.330;12.374;2023-04-25T09:29:35;10.30;1.00
12438;DHT22;6283;51.330;12.374;2023-04-25T09:34:42;10.50;1.00
12438;DHT22;6283;51.330;12.374;2023-04-25T09:37:11;10.40;1.00
12438;DHT22;6283;51.330;12.374;2023-04-25T09:39:38;10.60;1.00
12438;DHT22;6283;51.330;12.374;2023-04-25T09:42:05;10.70;1.00
12438;DHT22;6283;51.330;12.374;2023-04-25T09:44:31;10.50;1.00
12438;DHT22;6283;51.330;12.374;2023-04-25T09:46:57;10.50;1.00
12438;DHT22;6283;51.330;12.374;2023-04-25T09:49:23;10.60;1.00
12438;DHT22;6283;51.330;12.374;2023-04-25T09:51:59;10.20;1.00
12438;DHT22;6283;51.330;12.374;2023-04-25T09:54:26;10.30;1.00
12438;DHT22;6283;51.330;12.374;2023-04-25T09:56:53;9.90;1.00
12438;DHT22;6283;51.330;12.374;2023-04-25T09:59:22;10.10;1.00
12438;DHT22;6283;51.330;12.374;2023-04-25T10:01:52;10.20;1.00
12438;DHT22;6283;51.330;12.374;2023-04-25T10:04:22;9.90;1.00
12438;DHT22;6283;51.330;12.374;2023-04-25T10:06:49;9.70;1.00
12438;DHT22;6283;51.330;12.374;2023-04-25T10:09:23;9.70;1.00
12438;DHT22;6283;51.330;12.374;2023-04-25T10:11:50;9.60;1.00
12438;DHT22;6283;51.330;12.374;2023-04-25T10:14:17;9.90;1.00
12438;DHT22;6283;51.330;12.374;2023-04-25T10:16:45;9.90;1.00
12438;DHT22;6283;51.330;12.374;2023-04-25T10:19:10;9.90;1.00
12438;DHT22;6283;51.330;12.374;2023-04-25T10:21:44;9.80;1.00
12438;DHT22;6283;51.330;12.374;2023-04-25T10:24:11;9.80;1.00
12438;DHT22;6283;51.330;12.374;2023-04-25T10:26:38;9.90;1.00
12438;DHT22;6283;51.330;12.374;2023-04-25T10:29:04;9.60;1.00
12438;DHT22;6283;51.330;12.374;2023-04-25T10:31:30;9.70;1.00
12438;DHT22;6283;51.330;12.374;2023-04-25T10:33:56;9.70;1.00
12438;DHT22;6283;51.330;12.374;2023-04-25T10:36:23;9.90;1.00
12438;DHT22;6283;51.330;12.374;2023-04-25T10:38:52;10.00;1.00
12438;DHT22;6283;51.330;12.374;2023-04-25T10:41:20;9.80;1.00
12438;DHT22;6283;51.330;12.374;2023-04-25T10:43:47;10.00;1.00
12438;DHT22;6283;51.330;12.374;2023-04-25T10:49:27;9.60;1.00
12438;DHT22;6283;51.330;12.374;2023-04-25T10:51:36;9.50;1.00
12438;DHT22;6283;51.330;12.374;2023-04-25T10:54:04;9.60;1.00
12438;DHT22;6283;51.330;12.374;2023-04-25T11:01:37;9.60;1.00
12438;DHT22;6283;51.330;12.374;2023-04-25T11:04:03;9.70;1.00
12438;DHT22;6283;51.330;12.374;2023-04-25T11:08:57;9.70;1.00
12438;DHT22;6283;51.330;12.374;2023-04-25T11:11:25;9.90;1.00
12438;DHT22;6283;51.330;12.374;2023-04-25T11:13:51;9.80;1.00
12438;DHT22;6283;51.330;12.374;2023-04-25T11:16:17;9.70;1.00
12438;DHT22;6283;51.330;12.374;2023-04-25T11:18:44;9.60;1.00
12438;DHT22;6283;51.330;12.374;2023-04-25T11:21:10;9.80;1.00
12438;DHT22;6283;51.330;12.374;2023-04-25T11:23:36;9.70;1.00
12438;DHT22;6283;51.330;12.374;2023-04-25T11:26:05;9.60;1.00
12438;DHT22;6283;51.330;12.374;2023-04-25T11:28:31;9.60;1.00
12438;DHT22;6283;51.330;12.374;2023-04-25T11:30:56;9.50;1.00
12438;DHT22;6283;51.330;12.374;2023-04-25T11:33:26;9.70;1.00
12438;DHT22;6283;51.330;12.374;2023-04-25T11:35:55;9.70;1.00
12438;DHT22;6283;51.330;12.374;2023-04-25T11:38:25;9.50;1.00
12438;DHT22;6283;51.330;12.374;2023-04-25T11:40:52;9.60;1.00
12438;DHT22;6283;51.330;12.374;2023-04-25T11:43:23;9.60;1.00
12438;DHT22;6283;51.330;12.374;2023-04-25T11:45:49;9.60;1.00
12438;DHT22;6283;51.330;12.374;2023-04-25T11:48:17;9.70;1.00
12438;DHT22;6283;51.330;12.374;2023-04-25T11:50:42;9.70;1.00
12438;DHT22;6283;51.330;12.374;2023-04-25T11:53:10;9.90;1.00
12438;DHT22;6283;51.330;12.374;2023-04-25T11:55:37;9.90;1.00
12438;DHT22;6283;51.330;12.374;2023-04-25T11:58:03;9.70;1.00
12438;DHT22;6283;51.330;12.374;2023-04-25T12:00:29;9.80;1.00
12438;DHT22;6283;51.330;12.374;2023-04-25T12:02:56;10.00;1.00
12438;DHT22;6283;51.330;12.374;2023-04-25T12:05:27;9.70;1.00
12438;DHT22;6283;51.330;12.374;2023-04-25T12:07:54;9.90;1.00
12438;DHT22;6283;51.330;12.374;2023-04-25T12:10:20;9.70;1.00
12438;DHT22;6283;51.330;12.374;2023-04-25T12:12:47;9.80;1.00
12438;DHT22;6283;51.330;12.374;2023-04-25T12:15:17;10.00;1.00
12438;DHT22;6283;51.330;12.374;2023-04-25T12:17:49;10.10;1.00
12438;DHT22;6283;51.330;12.374;2023-04-25T12:20:20;9.90;1.00
12438;DHT22;6283;51.330;12.374;2023-04-25T12:22:49;9.90;1.00
12438;DHT22;6283;51.330;12.374;2023-04-25T12:25:38;10.40;1.00
12438;DHT22;6283;51.330;12.374;2023-04-25T12:33:22;10.20;1.00
12438;DHT22;6283;51.330;12.374;2023-04-25T12:35:47;10.10;1.00
12438;DHT22;6283;51.330;12.374;2023-04-25T12:38:27;10.30;1.00
12438;DHT22;6283;51.330;12.374;2023-04-25T12:40:53;10.00;1.00
12438;DHT22;6283;51.330;12.374;2023-04-25T12:43:19;10.30;1.00
12438;DHT22;6283;51.330;12.374;2023-04-25T12:45:55;10.00;1.00
12438;DHT22;6283;51.330;12.374;2023-04-25T12:48:21;10.40;1.00
12438;DHT22;6283;51.330;12.374;2023-04-25T12:50:47;10.40;1.00
12438;DHT22;6283;51.330;12.374;2023-04-25T12:53:18;10.30;1.00
12438;DHT22;6283;51.330;12.374;2023-04-25T12:55:44;10.00;1.00
12438;DHT22;6283;51.330;12.374;2023-04-25T12:58:18;10.40;1.00
12438;DHT22;6283;51.330;12.374;2023-04-25T13:00:44;10.20;1.00
12438;DHT22;6283;51.330;12.374;2023-04-25T13:03:11;10.00;1.00
12438;DHT22;6283;51.330;12.374;2023-04-25T13:05:38;10.20;1.00
12438;DHT22;6283;51.330;12.374;2023-04-25T13:08:03;9.90;1.00
12438;DHT22;6283;51.330;12.374;2023-04-25T13:10:29;10.00;1.00
12438;DHT22;6283;51.330;12.374;2023-04-25T13:12:55;9.80;1.00
12438;DHT22;6283;51.330;12.374;2023-04-25T13:15:21;9.80;1.00
12438;DHT22;6283;51.330;12.374;2023-04-25T13:17:47;9.80;1.00
12438;DHT22;6283;51.330;12.374;2023-04-25T13:20:12;10.00;1.00
12438;DHT22;6283;51.330;12.374;2023-04-25T13:22:40;9.80;1.00
12438;DHT22;6283;51.330;12.374;2023-04-25T13:25:07;9.90;1.00
12438;DHT22;6283;51.330;12.374;2023-04-25T13:27:34;9.90;1.00
12438;DHT22;6283;51.330;12.374;2023-04-25T13:30:01;10.00;1.00
12438;DHT22;6283;51.330;12.374;2023-04-25T13:32:35;10.10;1.00
12438;DHT22;6283;51.330;12.374;2023-04-25T13:35:05;10.40;1.00
12438;DHT22;6283;51.330;12.374;2023-04-25T13:37:31;10.60;1.00
12438;DHT22;6283;51.330;12.374;2023-04-25T13:40:00;10.80;1.00
12438;DHT22;6283;51.330;12.374;2023-04-25T13:42:26;11.00;1.00
12438;DHT22;6283;51.330;12.374;2023-04-25T13:44:51;11.30;1.00
12438;DHT22;6283;51.330;12.374;2023-04-25T13:47:17;11.50;1.00
12438;DHT22;6283;51.330;12.374;2023-04-25T13:49:43;11.50;1.00
12438;DHT22;6283;51.330;12.374;2023-04-25T13:52:08;11.70;1.00
12438;DHT22;6283;51.330;12.374;2023-04-25T13:54:34;12.10;1.00
12438;DHT22;6283;51.330;12.374;2023-04-25T13:56:59;12.30;1.00
12438;DHT22;6283;51.330;12.374;2023-04-25T13:59:25;12.60;1.00
12438;DHT22;6283;51.330;12.374;2023-04-25T14:01:51;12.50;1.00
12438;DHT22;6283;51.330;12.374;2023-04-25T14:04:17;12.70;1.00
12438;DHT22;6283;51.330;12.374;2023-04-25T14:06:43;12.80;1.00
12438;DHT22;6283;51.330;12.374;2023-04-25T14:09:09;12.60;1.00
12438;DHT22;6283;51.330;12.374;2023-04-25T14:11:36;12.40;1.00
12438;DHT22;6283;51.330;12.374;2023-04-25T14:14:02;12.30;1.00
12438;DHT22;6283;51.330;12.374;2023-04-25T14:16:29;12.20;1.00
12438;DHT22;6283;51.330;12.374;2023-04-25T14:18:55;11.90;1.00
12438;DHT22;6283;51.330;12.374;2023-04-25T14:21:21;11.70;1.00
12438;DHT22;6283;51.330;12.374;2023-04-25T14:23:47;11.40;1.00
12438;DHT22;6283;51.330;12.374;2023-04-25T14:26:13;11.20;1.00
12438;DHT22;6283;51.330;12.374;2023-04-25T14:28:38;11.10;1.00
12438;DHT22;6283;51.330;12.374;2023-04-25T14:31:04;10.80;1.00
12438;DHT22;6283;51.330;12.374;2023-04-25T14:33:30;11.00;1.00
12438;DHT22;6283;51.330;12.374;2023-04-25T14:35:56;11.10;1.00
12438;DHT22;6283;51.330;12.374;2023-04-25T14:38:22;10.90;1.00
12438;DHT22;6283;51.330;12.374;2023-04-25T14:40:51;10.90;1.00
12438;DHT22;6283;51.330;12.374;2023-04-25T14:43:19;11.00;1.00
12438;DHT22;6283;51.330;12.374;2023-04-25T14:45:45;10.90;1.00
12438;DHT22;6283;51.330;12.374;2023-04-25T14:48:10;11.10;1.00
12438;DHT22;6283;51.330;12.374;2023-04-25T14:50:36;11.10;1.00
12438;DHT22;6283;51.330;12.374;2023-04-25T14:53:02;11.20;1.00
12438;DHT22;6283;51.330;12.374;2023-04-25T14:55:28;11.20;1.00
12438;DHT22;6283;51.330;12.374;2023-04-25T14:57:54;11.30;1.00
12438;DHT22;6283;51.330;12.374;2023-04-25T15:00:21;11.20;1.00
12438;DHT22;6283;51.330;12.374;2023-04-25T15:02:48;11.00;1.00
12438;DHT22;6283;51.330;12.374;2023-04-25T15:05:13;11.10;1.00
12438;DHT22;6283;51.330;12.374;2023-04-25T15:07:39;10.90;1.00
12438;DHT22;6283;51.330;12.374;2023-04-25T15:10:08;11.00;1.00
12438;DHT22;6283;51.330;12.374;2023-04-25T15:12:39;11.00;1.00
12438;DHT22;6283;51.330;12.374;2023-04-25T15:15:06;11.00;1.00
12438;DHT22;6283;51.330;12.374;2023-04-25T15:17:42;10.90;1.00
12438;DHT22;6283;51.330;12.374;2023-04-25T15:20:10;11.00;1.00
12438;DHT22;6283;51.330;12.374;2023-04-25T15:22:37;11.00;1.00
12438;DHT22;6283;51.330;12.374;2023-04-25T15:25:05;10.80;1.00
12438;DHT22;6283;51.330;12.374;2023-04-25T15:27:33;10.90;1.00
12438;DHT22;6283;51.330;12.374;2023-04-25T15:30:06;10.60;1.00
12438;DHT22;6283;51.330;12.374;2023-04-25T15:32:32;10.90;1.00
12438;DHT22;6283;51.330;12.374;2023-04-25T15:34:58;10.90;1.00
12438;DHT22;6283;51.330;12.374;2023-04-25T15:37:24;10.80;1.00
12438;DHT22;6283;51.330;12.374;2023-04-25T15:40:07;10.90;1.00
12438;DHT22;6283;51.330;12.374;2023-04-25T15:42:44;10.70;1.00
12438;DHT22;6283;51.330;12.374;2023-04-25T15:45:14;10.90;1.00
12438;DHT22;6283;51.330;12.374;2023-04-25T15:47:42;10.80;1.00
12438;DHT22;6283;51.330;12.374;2023-04-25T15:50:09;11.00;1.00
12438;DHT22;6283;51.330;12.374;2023-04-25T15:52:36;10.90;1.00
12438;DHT22;6283;51.330;12.374;2023-04-25T15:55:03;10.80;1.00
12438;DHT22;6283;51.330;12.374;2023-04-25T15:57:31;10.80;1.00
12438;DHT22;6283;51.330;12.374;2023-04-25T15:59:57;10.50;1.00
12438;DHT22;6283;51.330;12.374;2023-04-25T16:02:22;10.80;1.00
12438;DHT22;6283;51.330;12.374;2023-04-25T16:04:48;10.60;1.00
12438;DHT22;6283;51.330;12.374;2023-04-25T16:07:14;10.40;1.00
12438;DHT22;6283;51.330;12.374;2023-04-25T16:09:39;10.50;1.00